createdAt,value
2019-06-07T00:00:50.569Z,100.0
2019-06-07T00:02:50.743Z,100.0
2019-06-07T00:04:50.371Z,100.0
2019-06-07T00:06:50.772Z,100.0
2019-06-07T00:08:49.857Z,100.0
2019-06-07T00:10:50.057Z,100.0
2019-06-07T00:12:50.216Z,100.0
2019-06-07T00:14:50.471Z,100.0
2019-06-07T00:16:50.713Z,100.0
2019-06-07T00:18:49.831Z,100.0
2019-06-07T00:20:49.919Z,100.0
2019-06-07T00:22:50.029Z,100.0
2019-06-07T00:24:50.088Z,100.0
2019-06-07T00:26:59.601Z,100.0
2019-06-07T00:28:50.692Z,100.0
2019-06-07T00:30:53.151Z,100.0
2019-06-07T00:32:50.333Z,100.0
2019-06-07T00:34:50.061Z,100.0
2019-06-07T00:36:50.284Z,100.0
2019-06-07T00:38:50.399Z,100.0
2019-06-07T00:40:50.534Z,100.0
2019-06-07T00:42:50.638Z,100.0
2019-06-07T00:44:49.835Z,100.0
2019-06-07T00:46:50.149Z,100.0
2019-06-07T00:48:50.258Z,100.0
2019-06-07T00:50:50.345Z,100.0
2019-06-07T00:53:31.222Z,100.0
2019-06-07T00:54:49.991Z,100.0
2019-06-07T00:56:50.209Z,100.0
2019-06-07T00:59:20.633Z,100.0
2019-06-07T01:00:50.053Z,100.0
2019-06-07T01:02:50.225Z,100.0
2019-06-07T01:04:50.777Z,100.0
2019-06-07T01:06:50.016Z,100.0
2019-06-07T01:08:50.079Z,100.0
2019-06-07T01:10:54.755Z,100.0
2019-06-07T01:12:50.009Z,100.0
2019-06-07T01:14:50.586Z,100.0
2019-06-07T01:17:40.754Z,100.0
2019-06-07T01:18:51.861Z,100.0
2019-06-07T01:20:49.951Z,100.0
2019-06-07T01:22:50.226Z,100.0
2019-06-07T01:24:50.392Z,100.0
2019-06-07T01:26:50.650Z,100.0
2019-06-07T01:28:49.808Z,100.0
2019-06-07T01:30:49.820Z,100.0
2019-06-07T01:32:49.880Z,100.0
2019-06-07T01:34:50.526Z,100.0
2019-06-07T01:36:49.934Z,100.0
2019-06-07T01:38:50.059Z,100.0
2019-06-07T01:40:50.227Z,100.0
2019-06-07T01:42:50.301Z,100.0
2019-06-07T01:44:50.455Z,100.0
2019-06-07T01:46:50.800Z,100.0
2019-06-07T01:48:50.412Z,100.0
2019-06-07T01:50:50.558Z,100.0
2019-06-07T01:52:50.534Z,100.0
2019-06-07T01:54:59.623Z,100.0
2019-06-07T01:56:49.997Z,100.0
2019-06-07T01:58:50.208Z,100.0
2019-06-07T02:00:50.361Z,100.0
2019-06-07T02:02:50.411Z,100.0
2019-06-07T02:04:50.078Z,100.0
2019-06-07T02:06:50.398Z,100.0
2019-06-07T02:08:50.230Z,100.0
2019-06-07T02:10:50.359Z,100.0
2019-06-07T02:12:50.454Z,100.0
2019-06-07T02:14:50.629Z,100.0
2019-06-07T02:16:50.077Z,100.0
2019-06-07T02:19:04.198Z,100.0
2019-06-07T02:20:50.300Z,100.0
2019-06-07T02:22:50.421Z,100.0
2019-06-07T02:25:43.539Z,100.0
2019-06-07T02:26:50.339Z,100.0
2019-06-07T02:28:50.427Z,100.0
2019-06-07T02:31:01.200Z,100.0
2019-06-07T02:32:50.312Z,100.0
2019-06-07T02:34:49.885Z,100.0
2019-06-07T02:36:50.113Z,100.0
2019-06-07T02:38:50.432Z,100.0
2019-06-07T02:40:50.572Z,100.0
2019-06-07T02:42:50.649Z,100.0
2019-06-07T02:44:50.792Z,100.0
2019-06-07T02:46:50.542Z,100.0
2019-06-07T02:48:50.708Z,100.0
2019-06-07T02:50:49.883Z,100.0
2019-06-07T02:52:50.046Z,100.0
2019-06-07T02:54:50.161Z,100.0
2019-06-07T02:56:59.764Z,100.0
2019-06-07T02:58:49.886Z,100.0
2019-06-07T03:01:10.405Z,100.0
2019-06-07T03:02:50.206Z,100.0
2019-06-07T03:04:50.721Z,100.0
2019-06-07T03:06:50.081Z,100.0
2019-06-07T03:08:50.249Z,100.0
2019-06-07T03:10:50.554Z,100.0
2019-06-07T03:12:50.678Z,100.0
2019-06-07T03:14:49.817Z,100.0
2019-06-07T03:16:50.072Z,100.0
2019-06-07T03:18:50.164Z,100.0
2019-06-07T03:21:06.064Z,100.0
2019-06-07T03:22:50.439Z,100.0
2019-06-07T03:24:50.544Z,100.0
2019-06-07T03:27:35.790Z,100.0
2019-06-07T03:28:49.815Z,100.0
2019-06-07T03:31:03.594Z,100.0
2019-06-07T03:32:52.373Z,100.0
2019-06-07T03:34:50.110Z,100.0
2019-06-07T03:36:50.371Z,100.0
2019-06-07T03:38:50.415Z,100.0
2019-06-07T03:40:50.714Z,100.0
2019-06-07T03:42:49.760Z,100.0
2019-06-07T03:44:49.937Z,100.0
2019-06-07T03:46:50.147Z,100.0
2019-06-07T03:48:50.250Z,100.0
2019-06-07T03:51:26.837Z,100.0
2019-06-07T03:52:51.793Z,100.0
2019-06-07T03:54:49.944Z,100.0
2019-06-07T03:56:50.108Z,100.0
2019-06-07T03:58:51.064Z,100.0
2019-06-07T04:00:50.239Z,100.0
2019-06-07T04:02:50.414Z,100.0
2019-06-07T04:04:50.230Z,100.0
2019-06-07T04:06:50.652Z,100.0
2019-06-07T04:08:50.736Z,100.0
2019-06-07T04:11:01.185Z,100.0
2019-06-07T04:12:50.153Z,100.0
2019-06-07T04:14:50.380Z,100.0
2019-06-07T04:16:50.938Z,100.0
2019-06-07T04:18:50.151Z,100.0
2019-06-07T04:20:50.291Z,100.0
2019-06-07T04:22:50.345Z,100.0
2019-06-07T04:24:50.457Z,100.0
2019-06-07T04:26:50.711Z,100.0
2019-06-07T04:29:33.709Z,100.0
2019-06-07T04:30:49.763Z,100.0
2019-06-07T04:32:49.900Z,100.0
2019-06-07T04:34:50.683Z,100.0
2019-06-07T04:36:59.994Z,100.0
2019-06-07T04:38:50.108Z,100.0
2019-06-07T04:40:50.272Z,100.0
2019-06-07T04:42:50.309Z,100.0
2019-06-07T04:44:50.441Z,98.9
2019-06-07T04:46:50.774Z,99.7
2019-06-07T04:48:49.994Z,100.0
2019-06-07T04:50:50.162Z,100.0
2019-06-07T04:52:50.235Z,100.0
2019-06-07T04:54:50.334Z,100.0
2019-06-07T04:56:50.611Z,99.1
2019-06-07T04:58:50.664Z,99.5
2019-06-07T05:01:04.138Z,100.0
2019-06-07T05:02:50.340Z,99.8
2019-06-07T05:04:50.806Z,100.0
2019-06-07T05:06:50.034Z,100.0
2019-06-07T05:08:49.982Z,97.7
2019-06-07T05:10:50.033Z,97.7
2019-06-07T05:12:50.058Z,99.3
2019-06-07T05:14:50.086Z,96.8
2019-06-07T05:16:50.215Z,96.5
2019-06-07T05:18:50.220Z,95.8
2019-06-07T05:20:50.212Z,94.7
2019-06-07T05:22:50.227Z,91.6
2019-06-07T05:24:50.311Z,90.7
2019-06-07T05:26:50.461Z,91.3
2019-06-07T05:28:50.668Z,91.5
2019-06-07T05:31:08.434Z,91.4
2019-06-07T05:32:50.230Z,91.5
2019-06-07T05:34:50.501Z,90.9
2019-06-07T05:37:12.484Z,90.9
2019-06-07T05:38:50.296Z,91.2
2019-06-07T05:40:50.289Z,92.1
2019-06-07T05:42:50.446Z,91.0
2019-06-07T05:44:50.424Z,90.6
2019-06-07T05:46:50.635Z,91.0
2019-06-07T05:48:50.748Z,89.8
2019-06-07T05:50:58.201Z,87.8
2019-06-07T05:52:50.277Z,89.8
2019-06-07T05:54:50.225Z,89.8
2019-06-07T05:56:50.402Z,91.2
2019-06-07T05:58:50.494Z,92.4
2019-06-07T06:00:51.510Z,90.8
2019-06-07T06:03:06.529Z,91.4
2019-06-07T06:04:50.361Z,90.3
2019-06-07T06:06:50.505Z,90.1
2019-06-07T06:08:50.547Z,90.8
2019-06-07T06:10:50.665Z,90.8
2019-06-07T06:12:52.510Z,91.6
2019-06-07T06:14:50.596Z,90.3
2019-06-07T06:16:50.505Z,89.2
2019-06-07T06:18:50.477Z,89.5
2019-06-07T06:21:20.791Z,88.4
2019-06-07T06:22:51.677Z,89.7
2019-06-07T06:25:32.811Z,87.9
2019-06-07T06:28:50.326Z,88.2
2019-06-07T06:30:50.437Z,88.8
2019-06-07T06:32:59.289Z,87.7
2019-06-07T06:34:56.227Z,86.6
2019-06-07T06:36:50.920Z,86.4
2019-06-07T06:38:51.985Z,88.3
2019-06-07T06:41:17.044Z,87.1
2019-06-07T06:42:51.017Z,85.2
2019-06-07T06:44:54.878Z,85.5
2019-06-07T06:46:58.931Z,85.0
2019-06-07T06:48:56.177Z,83.1
2019-06-07T06:50:53.161Z,82.1
2019-06-07T06:52:55.425Z,82.5
2019-06-07T06:55:01.729Z,84.5
2019-06-07T06:56:53.252Z,83.4
2019-06-07T06:59:38.477Z,87.0
2019-06-07T07:01:07.534Z,86.0
2019-06-07T07:03:56.379Z,83.7
2019-06-07T07:04:54.466Z,83.7
2019-06-07T07:06:55.557Z,81.9
2019-06-07T07:08:53.838Z,82.6
2019-06-07T07:10:55.650Z,82.0
2019-06-07T07:12:52.864Z,80.4
2019-06-07T07:14:56.529Z,79.8
2019-06-07T07:16:57.106Z,79.5
2019-06-07T07:18:55.184Z,80.0
2019-06-07T07:20:58.013Z,80.6
2019-06-07T07:22:57.434Z,79.6
2019-06-07T07:24:55.306Z,82.7
2019-06-07T07:26:58.810Z,82.6
2019-06-07T07:28:58.244Z,81.5
2019-06-07T07:30:57.757Z,80.7
2019-06-07T07:32:59.665Z,77.9
2019-06-07T07:35:01.124Z,80.8
2019-06-07T07:37:00.322Z,81.4
2019-06-07T07:39:06.711Z,78.0
2019-06-07T07:41:16.281Z,80.2
2019-06-07T07:42:57.052Z,80.5
2019-06-07T07:44:57.123Z,78.0
2019-06-07T07:46:56.626Z,77.8
2019-06-07T07:48:56.529Z,78.7
2019-06-07T07:51:03.654Z,78.1
2019-06-07T07:53:01.143Z,78.7
2019-06-07T07:54:58.771Z,77.8
2019-06-07T07:56:57.632Z,77.6
2019-06-07T07:59:03.232Z,75.4
2019-06-07T08:01:11.597Z,76.2
2019-06-07T08:03:04.852Z,78.0
2019-06-07T08:05:39.871Z,77.8
2019-06-07T08:06:56.345Z,75.6
2019-06-07T08:08:57.324Z,75.6
2019-06-07T08:11:02.773Z,74.5
2019-06-07T08:13:27.477Z,78.1
2019-06-07T08:15:04.291Z,76.0
2019-06-07T08:16:54.372Z,75.6
2019-06-07T08:19:04.775Z,76.7
2019-06-07T08:21:26.824Z,72.5
2019-06-07T08:22:58.889Z,74.6
2019-06-07T08:25:04.420Z,72.9
2019-06-07T08:27:26.993Z,73.3
2019-06-07T08:29:03.452Z,74.5
2019-06-07T08:31:08.427Z,74.7
2019-06-07T08:33:25.766Z,73.9
2019-06-07T08:35:07.150Z,73.3
2019-06-07T08:37:02.222Z,73.3
2019-06-07T08:39:08.058Z,71.1
2019-06-07T08:41:13.001Z,71.1
2019-06-07T08:43:21.409Z,68.3
2019-06-07T08:45:05.866Z,65
2019-06-07T08:47:21.367Z,65
2019-06-07T08:49:04.900Z,64
2019-06-07T08:51:08.931Z,64
2019-06-07T08:53:12.748Z,64
2019-06-07T08:55:04.884Z,64
2019-06-07T08:57:22.062Z,63
2019-06-07T08:59:00.524Z,63
2019-06-07T09:00:53.492Z,63
2019-06-07T09:03:03.368Z,64
2019-06-07T09:05:12.678Z,64
2019-06-07T09:07:22.351Z,63
2019-06-07T09:08:50.286Z,63
2019-06-07T09:10:50.386Z,63
2019-06-07T09:12:50.393Z,63
2019-06-07T09:15:24.254Z,63
2019-06-07T09:16:50.239Z,63
2019-06-07T09:18:50.319Z,63
2019-06-07T09:20:50.508Z,62
2019-06-07T09:22:50.928Z,62
2019-06-07T09:24:50.150Z,62
2019-06-07T09:26:50.341Z,62
2019-06-07T09:28:50.514Z,62
2019-06-07T09:30:50.606Z,62
2019-06-07T09:32:50.733Z,62
2019-06-07T09:34:50.540Z,62
2019-06-07T09:36:49.777Z,62
2019-06-07T09:38:49.881Z,62
2019-06-07T09:40:50.038Z,62
2019-06-07T09:44:00.484Z,62
2019-06-07T09:44:49.801Z,62
2019-06-07T09:47:32.754Z,62
2019-06-07T09:49:32.430Z,62
2019-06-07T09:50:49.878Z,62
2019-06-07T09:53:23.656Z,61
2019-06-07T09:55:25.323Z,61
2019-06-07T09:56:50.183Z,61
2019-06-07T09:58:54.865Z,61
2019-06-07T10:00:49.956Z,61
2019-06-07T10:02:50.073Z,61
2019-06-07T10:04:50.619Z,61
2019-06-07T10:06:49.915Z,61
2019-06-07T10:10:12.227Z,61
2019-06-07T10:10:49.835Z,59
2019-06-07T10:12:50.021Z,59
2019-06-07T10:14:50.102Z,59
2019-06-07T10:16:50.463Z,59
2019-06-07T10:18:50.587Z,58
2019-06-07T10:20:50.772Z,58
2019-06-07T10:22:49.889Z,58
2019-06-07T10:24:50.097Z,58
2019-06-07T10:26:50.447Z,57
2019-06-07T10:28:54.093Z,56
2019-06-07T10:30:50.280Z,56
2019-06-07T10:32:52.689Z,56
2019-06-07T10:34:50.381Z,56
2019-06-07T10:36:50.795Z,56
2019-06-07T10:38:49.865Z,56
2019-06-07T10:40:50.000Z,55
2019-06-07T10:42:50.116Z,56
2019-06-07T10:44:50.239Z,56
2019-06-07T10:46:50.417Z,56
2019-06-07T10:48:50.537Z,56
2019-06-07T10:50:50.773Z,56
2019-06-07T10:52:49.855Z,55
2019-06-07T10:54:50.002Z,54
2019-06-07T10:56:50.373Z,54
2019-06-07T10:58:50.553Z,54
2019-06-07T11:00:51.089Z,55
2019-06-07T11:02:50.285Z,55
2019-06-07T11:04:49.835Z,55
2019-06-07T11:06:50.217Z,55
2019-06-07T11:08:50.322Z,55
2019-06-07T11:10:50.535Z,54
2019-06-07T11:12:50.683Z,54
2019-06-07T11:14:50.848Z,54
2019-06-07T11:16:50.138Z,54
2019-06-07T11:18:50.408Z,54
2019-06-07T11:20:50.574Z,54
2019-06-07T11:22:50.578Z,54
2019-06-07T11:24:50.715Z,53
2019-06-07T11:26:49.916Z,53
2019-06-07T11:28:49.982Z,52
2019-06-07T11:30:50.223Z,53
2019-06-07T11:32:50.326Z,52
2019-06-07T11:34:49.803Z,52
2019-06-07T11:36:51.580Z,52
2019-06-07T11:38:50.750Z,52
2019-06-07T11:40:49.771Z,52
2019-06-07T11:42:53.232Z,50
2019-06-07T11:44:57.746Z,50
2019-06-07T11:46:50.032Z,52
2019-06-07T11:48:50.137Z,51
2019-06-07T11:50:50.238Z,51
2019-06-07T11:52:50.374Z,51
2019-06-07T11:54:50.627Z,50
2019-06-07T11:56:49.877Z,50
2019-06-07T11:58:49.987Z,50
2019-06-07T12:00:50.125Z,51
2019-06-07T12:02:50.407Z,50
2019-06-07T12:04:49.975Z,50
2019-06-07T12:06:50.340Z,50
2019-06-07T12:08:50.497Z,49
2019-06-07T12:10:50.622Z,50
2019-06-07T12:12:50.806Z,50
2019-06-07T12:14:50.058Z,50
2019-06-07T12:16:50.354Z,49
2019-06-07T12:18:50.548Z,49
2019-06-07T12:20:50.706Z,50
2019-06-07T12:22:49.845Z,49
2019-06-07T12:24:50.006Z,49
2019-06-07T12:26:50.355Z,50
2019-06-07T12:28:50.543Z,49
2019-06-07T12:30:50.631Z,49
2019-06-07T12:32:50.786Z,49
2019-06-07T12:34:50.446Z,49
2019-06-07T12:36:50.717Z,49
2019-06-07T12:38:49.772Z,49
2019-06-07T12:40:58.456Z,49
2019-06-07T12:42:50.627Z,48
2019-06-07T12:44:49.818Z,48
2019-06-07T12:46:50.119Z,48
2019-06-07T12:48:50.270Z,48
2019-06-07T12:50:50.778Z,48
2019-06-07T12:52:50.471Z,47
2019-06-07T12:54:50.396Z,47
2019-06-07T12:56:52.889Z,47
2019-06-07T12:58:49.985Z,46
2019-06-07T13:00:50.126Z,46
2019-06-07T13:02:50.229Z,45
2019-06-07T13:04:49.822Z,46
2019-06-07T13:06:50.057Z,46
2019-06-07T13:08:50.282Z,46
2019-06-07T13:10:50.376Z,46
2019-06-07T13:12:50.568Z,45
2019-06-07T13:14:49.868Z,45
2019-06-07T13:16:50.041Z,45
2019-06-07T13:18:50.187Z,45
2019-06-07T13:20:55.741Z,45
2019-06-07T13:22:49.834Z,44
2019-06-07T13:24:50.034Z,45
2019-06-07T13:26:50.162Z,45
2019-06-07T13:28:50.206Z,45
2019-06-07T13:30:50.378Z,45
2019-06-07T13:32:50.464Z,44
2019-06-07T13:34:50.014Z,44
2019-06-07T13:36:50.361Z,44
2019-06-07T13:38:50.488Z,44
2019-06-07T13:40:50.565Z,43
2019-06-07T13:42:50.648Z,43
2019-06-07T13:44:49.827Z,43
2019-06-07T13:46:50.040Z,43
2019-06-07T13:48:50.188Z,43
2019-06-07T13:50:50.307Z,44
2019-06-07T13:52:50.448Z,44
2019-06-07T13:54:50.566Z,43
2019-06-07T13:57:03.602Z,43
2019-06-07T13:58:49.851Z,44
2019-06-07T14:00:50.049Z,42
2019-06-07T14:02:50.268Z,42
2019-06-07T14:04:49.915Z,42
2019-06-07T14:06:50.335Z,41
2019-06-07T14:08:50.360Z,41
2019-06-07T14:10:50.526Z,42
2019-06-07T14:12:50.608Z,41
2019-06-07T14:14:50.744Z,41
2019-06-07T14:16:50.115Z,42
2019-06-07T14:18:50.230Z,42
2019-06-07T14:20:50.324Z,40
2019-06-07T14:22:54.971Z,40
2019-06-07T14:24:50.053Z,40
2019-06-07T14:26:50.282Z,40
2019-06-07T14:28:50.430Z,41
2019-06-07T14:30:50.624Z,41
2019-06-07T14:32:50.793Z,42
2019-06-07T14:34:50.369Z,42
2019-06-07T14:36:50.611Z,42
2019-06-07T14:38:50.756Z,41
2019-06-07T14:40:49.883Z,41
2019-06-07T14:42:49.960Z,40
2019-06-07T14:44:50.004Z,40
2019-06-07T14:46:50.349Z,40
2019-06-07T14:48:50.380Z,40
2019-06-07T14:50:50.638Z,40
2019-06-07T14:52:50.761Z,40
2019-06-07T14:54:49.973Z,40
2019-06-07T14:56:50.291Z,39
2019-06-07T14:58:50.418Z,40
2019-06-07T15:00:50.622Z,40
2019-06-07T15:02:50.673Z,40
2019-06-07T15:04:50.322Z,40
2019-06-07T15:06:50.625Z,40
2019-06-07T15:08:52.208Z,40
2019-06-07T15:10:50.371Z,41
2019-06-07T15:12:49.840Z,41
2019-06-07T15:14:49.947Z,40
2019-06-07T15:16:50.623Z,41
2019-06-07T15:18:50.173Z,40
2019-06-07T15:20:50.341Z,40
2019-06-07T15:22:50.531Z,40
2019-06-07T15:24:50.610Z,40
2019-06-07T15:26:49.973Z,40
2019-06-07T15:28:49.992Z,40
2019-06-07T15:30:50.102Z,40
2019-06-07T15:32:50.122Z,40
2019-06-07T15:34:50.391Z,40
2019-06-07T15:36:50.441Z,39
2019-06-07T15:38:50.671Z,38
2019-06-07T15:40:49.824Z,39
2019-06-07T15:42:53.790Z,39
2019-06-07T15:44:50.730Z,40
2019-06-07T15:46:49.875Z,39
2019-06-07T15:48:49.864Z,38
2019-06-07T15:50:49.947Z,38
2019-06-07T15:52:50.046Z,39
2019-06-07T15:54:50.077Z,37
2019-06-07T15:56:50.365Z,37
2019-06-07T15:58:50.388Z,38
2019-06-07T16:00:50.669Z,38
2019-06-07T16:02:49.859Z,38
2019-06-07T16:04:50.493Z,38
2019-06-07T16:06:50.718Z,38
2019-06-07T16:08:50.773Z,39
2019-06-07T16:10:49.939Z,39
2019-06-07T16:13:01.317Z,39
2019-06-07T16:14:50.109Z,39
2019-06-07T16:16:50.359Z,38
2019-06-07T16:18:50.497Z,38
2019-06-07T16:20:50.594Z,38
2019-06-07T16:22:50.635Z,38
2019-06-07T16:24:50.694Z,37
2019-06-07T16:26:50.090Z,37
2019-06-07T16:28:50.178Z,37
2019-06-07T16:30:50.314Z,36
2019-06-07T16:32:50.432Z,36
2019-06-07T16:34:50.072Z,37
2019-06-07T16:36:50.274Z,36
2019-06-07T16:38:50.473Z,36
2019-06-07T16:40:50.559Z,36
2019-06-07T16:42:50.686Z,38
2019-06-07T16:44:49.944Z,37
2019-06-07T16:46:50.198Z,37
2019-06-07T16:48:50.335Z,37
2019-06-07T16:50:50.432Z,37
2019-06-07T16:52:50.487Z,37
2019-06-07T16:54:50.575Z,37
2019-06-07T16:56:51.804Z,37
2019-06-07T16:58:49.897Z,37
2019-06-07T17:00:50.144Z,37
2019-06-07T17:02:50.311Z,37
2019-06-07T17:04:49.860Z,37
2019-06-07T17:06:50.426Z,37
2019-06-07T17:08:50.537Z,36
2019-06-07T17:10:50.559Z,36
2019-06-07T17:12:50.665Z,37
2019-06-07T17:14:49.868Z,37
2019-06-07T17:16:50.724Z,32.3
2019-06-07T17:18:49.829Z,32.3
2019-06-07T17:20:49.931Z,32.8
2019-06-07T17:22:50.252Z,34.1
2019-06-07T17:24:50.368Z,35.7
2019-06-07T17:26:50.641Z,35.6
2019-06-07T17:28:50.775Z,36.0
2019-06-07T17:30:50.875Z,37.2
2019-06-07T17:32:59.943Z,36.7
2019-06-07T17:34:50.805Z,38.5
2019-06-07T17:36:51.163Z,38.5
2019-06-07T17:38:51.051Z,38.8
2019-06-07T17:40:51.534Z,39.4
2019-06-07T17:42:51.440Z,39.7
2019-06-07T17:44:51.920Z,40.3
2019-06-07T17:46:52.053Z,40.3
2019-06-07T17:48:50.183Z,41.4
2019-06-07T17:50:50.403Z,41.2
2019-06-07T17:52:51.787Z,40.2
2019-06-07T17:54:50.460Z,39.7
2019-06-07T17:56:50.963Z,40.6
2019-06-07T17:58:50.914Z,40.4
2019-06-07T18:00:53.248Z,40.5
2019-06-07T18:02:51.368Z,40.3
2019-06-07T18:04:51.413Z,40.6
2019-06-07T18:06:51.538Z,39.5
2019-06-07T18:08:52.015Z,40.0
2019-06-07T18:10:51.991Z,40.0
2019-06-07T18:12:50.638Z,39.4
2019-06-07T18:14:50.731Z,39.5
2019-06-07T18:16:51.047Z,40.4
2019-06-07T18:18:51.035Z,40.1
2019-06-07T18:20:53.744Z,39.9
2019-06-07T18:22:51.396Z,41.2
2019-06-07T18:24:51.015Z,41.2
2019-06-07T18:26:51.145Z,41.6
2019-06-07T18:28:50.974Z,41.6
2019-06-07T18:30:51.150Z,43.1
2019-06-07T18:32:51.223Z,43.2
2019-06-07T18:34:51.135Z,43.9
2019-06-07T18:36:51.470Z,44.1
2019-06-07T18:38:51.304Z,44.9
2019-06-07T18:40:51.634Z,43.5
2019-06-07T18:42:51.210Z,43.9
2019-06-07T18:44:51.397Z,44.4
2019-06-07T18:46:50.563Z,45.3
2019-06-07T18:48:50.980Z,44.7
2019-06-07T18:50:51.048Z,45.3
2019-06-07T18:52:52.584Z,45.7
2019-06-07T18:54:51.303Z,48.1
2019-06-07T18:56:51.148Z,49.4
2019-06-07T18:58:51.401Z,48.2
2019-06-07T19:00:51.799Z,48.0
2019-06-07T19:02:50.160Z,48.9
2019-06-07T19:04:52.518Z,48.3
2019-06-07T19:06:50.627Z,48.3
2019-06-07T19:08:59.714Z,48.8
2019-06-07T19:10:51.019Z,49.0
2019-06-07T19:12:51.275Z,49.9
2019-06-07T19:14:53.004Z,51.0
2019-06-07T19:16:53.937Z,50.6
2019-06-07T19:18:50.192Z,51.4
2019-06-07T19:20:54.186Z,51.2
2019-06-07T19:22:50.593Z,51.8
2019-06-07T19:24:52.266Z,50.1
2019-06-07T19:26:52.443Z,49.1
2019-06-07T19:28:50.965Z,50.4
2019-06-07T19:30:51.194Z,50.0
2019-06-07T19:32:53.432Z,49.0
2019-06-07T19:34:51.504Z,50.6
2019-06-07T19:36:51.889Z,50.6
2019-06-07T19:38:50.109Z,51.6
2019-06-07T19:40:50.158Z,52.2
2019-06-07T19:42:52.265Z,53.1
2019-06-07T19:45:30.621Z,52.7
2019-06-07T19:46:50.073Z,53.1
2019-06-07T19:48:50.180Z,53.5
2019-06-07T19:50:50.407Z,53.5
2019-06-07T19:52:50.620Z,56.1
2019-06-07T19:54:50.785Z,54.4
2019-06-07T19:56:50.315Z,54.0
2019-06-07T19:58:50.386Z,57.0
2019-06-07T20:00:50.487Z,57.0
2019-06-07T20:02:50.611Z,59.2
2019-06-07T20:04:50.170Z,65.0
2019-06-07T20:06:50.387Z,69.1
2019-06-07T20:08:50.617Z,70.2
2019-06-07T20:10:50.768Z,71.1
2019-06-07T20:12:49.912Z,72.2
2019-06-07T20:15:23.133Z,72.1
2019-06-07T20:16:49.882Z,74.0
2019-06-07T20:18:49.940Z,75.0
2019-06-07T20:20:50.027Z,73.5
2019-06-07T20:22:50.112Z,72.3
2019-06-07T20:24:50.220Z,69.5
2019-06-07T20:26:50.442Z,66.0
2019-06-07T20:28:50.515Z,65.9
2019-06-07T20:30:52.740Z,65.4
2019-06-07T20:32:49.900Z,64.7
2019-06-07T20:34:50.459Z,64.8
2019-06-07T20:36:50.693Z,65.4
2019-06-07T20:38:49.820Z,65.0
2019-06-07T20:40:49.862Z,65.3
2019-06-07T20:42:50.152Z,65.3
2019-06-07T20:44:50.251Z,65.6
2019-06-07T20:46:50.607Z,65.3
2019-06-07T20:48:49.819Z,63.5
2019-06-07T20:50:49.913Z,64.1
2019-06-07T20:52:50.101Z,63.5
2019-06-07T20:54:50.330Z,63.3
2019-06-07T20:56:50.476Z,63.4
2019-06-07T20:58:50.555Z,62.7
2019-06-07T21:00:50.621Z,62.7
2019-06-07T21:02:50.779Z,62.9
2019-06-07T21:04:50.586Z,63.1
2019-06-07T21:06:49.924Z,63.1
2019-06-07T21:08:50.029Z,63.1
2019-06-07T21:10:50.113Z,63.6
2019-06-07T21:12:50.307Z,63.9
2019-06-07T21:14:50.418Z,64.5
2019-06-07T21:16:50.629Z,66.3
2019-06-07T21:18:50.670Z,66.0
2019-06-07T21:20:49.820Z,66.4
2019-06-07T21:22:49.938Z,66.5
2019-06-07T21:24:50.006Z,66.7
2019-06-07T21:26:53.852Z,66.4
2019-06-07T21:28:50.161Z,67.1
2019-06-07T21:30:50.245Z,66.5
2019-06-07T21:32:50.426Z,66.2
2019-06-07T21:34:50.040Z,66.3
2019-06-07T21:36:50.280Z,67.0
2019-06-07T21:38:50.437Z,66.9
2019-06-07T21:40:50.522Z,67.3
2019-06-07T21:42:49.843Z,68.1
2019-06-07T21:44:49.927Z,66.5
2019-06-07T21:46:50.334Z,66.8
2019-06-07T21:48:50.465Z,67.6
2019-06-07T21:50:50.540Z,67.1
2019-06-07T21:52:50.571Z,67.1
2019-06-07T21:54:50.688Z,67.2
2019-06-07T21:56:49.915Z,69.2
2019-06-07T21:58:50.086Z,68.3
2019-06-07T22:00:50.482Z,67.7
2019-06-07T22:02:50.101Z,67.9
2019-06-07T22:04:50.614Z,68.4
2019-06-07T22:06:49.796Z,68.7
2019-06-07T22:08:49.935Z,70.8
2019-06-07T22:10:50.157Z,71.2
2019-06-07T22:12:50.376Z,75.6
2019-06-07T22:14:50.428Z,80.0
2019-06-07T22:16:50.648Z,81.6
2019-06-07T22:18:49.840Z,84.4
2019-06-07T22:20:49.919Z,86.1
2019-06-07T22:22:49.977Z,86.5
2019-06-07T22:24:50.159Z,88.3
2019-06-07T22:26:50.454Z,89.0
2019-06-07T22:28:50.622Z,90.0
2019-06-07T22:30:50.699Z,90.0
2019-06-07T22:32:50.808Z,87.4
2019-06-07T22:34:50.553Z,89.7
2019-06-07T22:36:50.015Z,86.0
2019-06-07T22:38:50.126Z,86.3
2019-06-07T22:40:50.228Z,84.1
2019-06-07T22:42:50.420Z,84.1
2019-06-07T22:44:50.552Z,85.6
2019-06-07T22:46:49.834Z,87.1
2019-06-07T22:48:49.979Z,85.1
2019-06-07T22:50:50.030Z,85.0
2019-06-07T22:52:50.096Z,84.0
2019-06-07T22:54:50.179Z,84.5
2019-06-07T22:56:50.432Z,87.0
2019-06-07T22:58:50.524Z,86.0
2019-06-07T23:00:50.728Z,86.2
2019-06-07T23:02:49.792Z,87.0
2019-06-07T23:04:50.457Z,85.5
2019-06-07T23:06:49.823Z,87.9
2019-06-07T23:08:50.059Z,83.0
2019-06-07T23:10:50.240Z,84.7
2019-06-07T23:12:50.330Z,84.1
2019-06-07T23:14:50.494Z,84.6
2019-06-07T23:16:56.647Z,85.9
2019-06-07T23:18:50.008Z,87.2
2019-06-07T23:20:50.148Z,87.8
2019-06-07T23:22:50.211Z,89.2
2019-06-07T23:24:50.309Z,88.9
2019-06-07T23:26:50.526Z,89.0
2019-06-07T23:28:50.735Z,85.7
2019-06-07T23:30:49.810Z,86.8
2019-06-07T23:32:49.958Z,86.9
2019-06-07T23:34:50.666Z,87.5
2019-06-07T23:36:50.008Z,84.0
2019-06-07T23:38:50.068Z,84.0
2019-06-07T23:40:50.160Z,84.6
2019-06-07T23:42:50.384Z,83.3
2019-06-07T23:44:50.476Z,84.3
2019-06-07T23:46:49.821Z,84.4
2019-06-07T23:48:49.848Z,82.7
2019-06-07T23:50:49.851Z,84.5
2019-06-07T23:52:50.097Z,83.7
2019-06-07T23:54:50.224Z,87.7
2019-06-07T23:56:50.493Z,87.0
2019-06-07T23:58:50.655Z,88.4
